createdAt,value
2022-11-21T00:01:26.132Z,16.48
2022-11-21T00:03:53.059Z,15.77
2022-11-21T00:06:20.370Z,16.22
2022-11-21T00:08:47.677Z,16.08
2022-11-21T00:11:15.162Z,14.54
2022-11-21T00:13:42.583Z,15.27
2022-11-21T00:16:15.965Z,17.07
2022-11-21T00:18:44.144Z,16.33
2022-11-21T00:21:17.581Z,16.74
2022-11-21T00:23:46.009Z,16.84
2022-11-21T00:26:15.118Z,16.02
2022-11-21T00:28:42.167Z,15.38
2022-11-21T00:31:17.492Z,15.04
2022-11-21T00:33:44.383Z,13.99
2022-11-21T00:36:11.519Z,14.59
2022-11-21T00:38:38.566Z,13.73
2022-11-21T00:41:06.350Z,14.68
2022-11-21T00:43:35.635Z,15.02
2022-11-21T00:46:03.315Z,14.95
2022-11-21T00:48:32.224Z,14.10
2022-11-21T00:51:00.574Z,15.30
2022-11-21T00:53:28.201Z,14.52
2022-11-21T00:55:55.403Z,14.78
2022-11-21T00:58:22.282Z,15.18
2022-11-21T01:00:49.343Z,15.55
2022-11-21T01:03:16.365Z,15.30
2022-11-21T01:05:43.456Z,15.71
2022-11-21T01:08:10.345Z,16.17
2022-11-21T01:10:37.295Z,15.66
2022-11-21T01:13:04.623Z,15.89
2022-11-21T01:15:31.515Z,15.07
2022-11-21T01:17:58.391Z,15.89
2022-11-21T01:20:25.273Z,16.45
2022-11-21T01:22:52.265Z,16.64
2022-11-21T01:25:19.160Z,15.43
2022-11-21T01:27:46.047Z,14.10
2022-11-21T01:30:14.460Z,14.15
2022-11-21T01:32:41.398Z,15.21
2022-11-21T01:35:08.711Z,14.01
2022-11-21T01:37:36.178Z,13.64
2022-11-21T01:40:03.451Z,14.97
2022-11-21T01:42:52.291Z,15.10
2022-11-21T01:45:54.741Z,13.82
2022-11-21T01:48:29.798Z,13.76
2022-11-21T01:51:04.288Z,14.02
2022-11-21T01:53:31.511Z,13.58
2022-11-21T01:55:58.578Z,14.92
2022-11-21T01:58:26.155Z,14.66
2022-11-21T02:00:53.177Z,15.01
2022-11-21T02:03:25.430Z,14.07
2022-11-21T02:05:52.679Z,14.89
2022-11-21T02:08:21.631Z,14.49
2022-11-21T02:11:02.504Z,14.77
2022-11-21T02:13:29.470Z,15.26
2022-11-21T02:15:57.352Z,43.68
2022-11-21T02:18:24.676Z,43.68
2022-11-21T02:21:11.210Z,43.68
2022-11-21T02:24:08.843Z,14.05
2022-11-21T02:26:36.092Z,13.30
2022-11-21T02:29:03.428Z,13.30
2022-11-21T02:31:30.318Z,11.55
2022-11-21T02:33:57.216Z,12.52
2022-11-21T02:36:43.384Z,12.78
2022-11-21T02:39:24.082Z,12.79
2022-11-21T02:42:04.532Z,11.81
2022-11-21T02:44:55.358Z,11.81
2022-11-21T02:47:23.895Z,11.81
2022-11-21T02:50:16.723Z,11.81
2022-11-21T02:52:43.611Z,12.14
2022-11-21T02:55:11.893Z,12.81
2022-11-21T02:57:40.088Z,13.20
2022-11-21T03:00:08.930Z,13.22
2022-11-21T03:02:37.074Z,12.34
2022-11-21T03:05:06.438Z,12.37
2022-11-21T03:07:33.790Z,13.01
2022-11-21T03:10:00.879Z,12.67
2022-11-21T03:12:27.767Z,11.97
2022-11-21T03:14:54.665Z,11.38
2022-11-21T03:17:21.817Z,11.54
2022-11-21T03:19:48.741Z,11.66
2022-11-21T03:22:16.510Z,10.28
2022-11-21T03:24:46.069Z,10.82
2022-11-21T03:27:12.944Z,12.07
2022-11-21T03:29:39.854Z,11.45
2022-11-21T03:32:06.770Z,11.31
2022-11-21T03:34:33.693Z,11.24
2022-11-21T03:37:00.732Z,11.91
2022-11-21T03:39:29.101Z,11.45
2022-11-21T03:41:56.581Z,11.05
2022-11-21T03:44:23.874Z,11.34
2022-11-21T03:46:51.389Z,11.24
2022-11-21T03:49:18.250Z,9.77
2022-11-21T03:51:45.452Z,10.25
2022-11-21T03:54:12.661Z,10.60
2022-11-21T03:56:39.808Z,9.98
2022-11-21T03:59:06.964Z,9.89
2022-11-21T04:01:36.872Z,9.88
2022-11-21T04:04:04.955Z,10.60
2022-11-21T04:06:32.191Z,10.72
2022-11-21T04:08:59.066Z,10.02
2022-11-21T04:11:25.977Z,9.93
2022-11-21T04:13:53.039Z,10.49
2022-11-21T04:16:20.450Z,10.71
2022-11-21T04:18:47.591Z,10.64
2022-11-21T04:21:14.502Z,10.43
2022-11-21T04:23:41.393Z,10.37
2022-11-21T04:26:08.454Z,10.34
2022-11-21T04:28:35.325Z,10.72
2022-11-21T04:31:09.975Z,10.72
2022-11-21T04:33:38.621Z,10.21
2022-11-21T04:36:07.516Z,9.75
2022-11-21T04:38:34.468Z,10.35
2022-11-21T04:41:01.732Z,10.39
2022-11-21T04:43:28.637Z,10.81
2022-11-21T04:45:55.547Z,10.05
2022-11-21T04:48:22.482Z,10.15
2022-11-21T04:50:49.479Z,10.44
2022-11-21T04:53:16.382Z,10.59
2022-11-21T04:55:43.998Z,10.85
2022-11-21T04:58:11.365Z,13.10
2022-11-21T05:00:38.223Z,11.59
2022-11-21T05:03:06.408Z,9.50
2022-11-21T05:05:33.471Z,10.93
2022-11-21T05:08:00.547Z,10.51
2022-11-21T05:10:27.444Z,9.17
2022-11-21T05:13:19.802Z,10.35
2022-11-21T05:15:47.553Z,10.21
2022-11-21T05:18:14.411Z,9.84
2022-11-21T05:20:41.304Z,10.58
2022-11-21T05:23:08.202Z,11.18
2022-11-21T05:25:35.486Z,10.84
2022-11-21T05:28:02.381Z,10.43
2022-11-21T05:30:29.714Z,10.85
2022-11-21T05:32:56.996Z,10.84
2022-11-21T05:35:24.295Z,11.06
2022-11-21T05:37:57.317Z,10.40
2022-11-21T05:40:25.371Z,10.01
2022-11-21T05:43:11.383Z,10.41
2022-11-21T05:45:38.932Z,11.37
2022-11-21T05:48:09.230Z,11.10
2022-11-21T05:50:36.876Z,10.90
2022-11-21T05:53:05.461Z,10.56
2022-11-21T05:55:34.513Z,10.53
2022-11-21T05:58:01.784Z,11.54
2022-11-21T06:00:29.673Z,11.08
2022-11-21T06:03:15.634Z,10.59
2022-11-21T06:05:42.995Z,11.23
2022-11-21T06:08:09.976Z,10.73
2022-11-21T06:10:36.942Z,10.96
2022-11-21T06:13:04.131Z,10.48
2022-11-21T06:15:31.083Z,10.36
2022-11-21T06:18:01.321Z,10.96
2022-11-21T06:20:28.646Z,11.00
2022-11-21T06:22:55.917Z,10.42
2022-11-21T06:25:22.785Z,10.52
2022-11-21T06:27:49.671Z,10.87
2022-11-21T06:30:21.968Z,10.98
2022-11-21T06:32:49.324Z,11.37
2022-11-21T06:35:16.762Z,11.46
2022-11-21T06:37:43.689Z,11.86
2022-11-21T06:40:11.679Z,11.13
2022-11-21T06:42:38.658Z,10.98
2022-11-21T06:45:06.189Z,10.93
2022-11-21T06:47:36.440Z,11.13
2022-11-21T06:50:03.970Z,11.61
2022-11-21T06:52:33.768Z,10.84
2022-11-21T06:55:00.711Z,10.79
2022-11-21T06:57:28.050Z,10.25
2022-11-21T06:59:54.996Z,10.92
2022-11-21T07:02:22.321Z,10.32
2022-11-21T07:04:49.656Z,10.81
2022-11-21T07:07:17.040Z,11.06
2022-11-21T07:09:44.793Z,10.20
2022-11-21T07:12:31.058Z,10.65
2022-11-21T07:14:58.412Z,10.60
2022-11-21T07:17:25.845Z,10.95
2022-11-21T07:19:53.227Z,11.22
2022-11-21T07:22:20.692Z,11.24
2022-11-21T07:24:49.966Z,10.75
2022-11-21T07:27:16.946Z,11.06
2022-11-21T07:29:44.361Z,10.84
2022-11-21T07:32:12.122Z,11.00
2022-11-21T07:34:39.504Z,11.39
2022-11-21T07:37:06.879Z,11.73
2022-11-21T07:39:34.256Z,10.45
2022-11-21T07:42:01.626Z,10.49
2022-11-21T07:44:30.020Z,11.68
2022-11-21T07:46:57.510Z,11.88
2022-11-21T07:49:25.046Z,10.28
2022-11-21T07:51:52.508Z,11.26
2022-11-21T07:54:19.878Z,9.91
2022-11-21T07:56:47.323Z,10.45
2022-11-21T07:59:14.710Z,10.35
2022-11-21T08:01:45.419Z,10.40
2022-11-21T08:04:13.174Z,11.59
2022-11-21T08:06:40.660Z,11.47
2022-11-21T08:09:07.658Z,11.77
2022-11-21T08:11:39.192Z,10.75
2022-11-21T08:14:06.239Z,11.22
2022-11-21T08:17:25.727Z,10.89
2022-11-21T08:19:52.757Z,10.93
2022-11-21T08:22:19.707Z,11.52
2022-11-21T08:24:47.232Z,11.80
2022-11-21T08:27:17.020Z,10.74
2022-11-21T08:29:44.561Z,11.01
2022-11-21T08:32:11.593Z,11.06
2022-11-21T08:34:45.024Z,11.47
2022-11-21T08:37:20.549Z,10.97
2022-11-21T08:39:47.934Z,11.06
2022-11-21T08:45:07.952Z,11.05
2022-11-21T08:47:46.040Z,11.20
2022-11-21T08:50:31.788Z,11.84
2022-11-21T08:53:02.730Z,11.46
2022-11-21T08:55:30.902Z,11.60
2022-11-21T08:57:58.558Z,11.61
2022-11-21T09:00:26.204Z,12.19
2022-11-21T09:02:59.130Z,12.01
2022-11-21T09:05:26.930Z,12.01
2022-11-21T09:07:58.220Z,11.85
2022-11-21T09:10:26.915Z,11.01
2022-11-21T09:12:53.961Z,11.91
2022-11-21T09:15:39.754Z,11.23
2022-11-21T09:18:07.952Z,12.01
2022-11-21T09:20:41.501Z,12.76
2022-11-21T09:23:14.752Z,12.16
2022-11-21T09:25:42.523Z,12.14
2022-11-21T09:28:11.981Z,10.83
2022-11-21T09:30:40.016Z,12.47
2022-11-21T09:33:13.241Z,12.26
2022-11-21T09:35:40.416Z,11.64
2022-11-21T09:38:07.300Z,11.84
2022-11-21T09:40:36.038Z,11.86
2022-11-21T09:43:27.961Z,11.56
2022-11-21T09:46:15.343Z,12.50
2022-11-21T09:49:05.463Z,12.10
2022-11-21T09:51:32.389Z,12.43
2022-11-21T09:54:02.680Z,12.03
2022-11-21T09:56:36.197Z,11.92
2022-11-21T09:59:33.058Z,12.57
2022-11-21T10:02:00.173Z,12.49
2022-11-21T10:04:27.877Z,11.96
2022-11-21T10:07:12.180Z,11.95
2022-11-21T10:10:12.450Z,12.44
2022-11-21T10:13:21.101Z,12.75
2022-11-21T10:16:03.463Z,12.68
2022-11-21T10:18:53.309Z,12.93
2022-11-21T10:22:05.632Z,12.65
2022-11-21T10:24:56.451Z,12.89
2022-11-21T10:27:31.959Z,13.08
2022-11-21T10:30:07.532Z,13.43
2022-11-21T10:32:47.475Z,13.33
2022-11-21T10:35:24.335Z,12.59
2022-11-21T10:38:01.015Z,12.65
2022-11-21T10:41:14.697Z,12.56
2022-11-21T10:44:22.887Z,12.51
2022-11-21T10:46:57.929Z,12.07
2022-11-21T10:49:29.409Z,12.92
2022-11-21T10:52:20.127Z,13.25
2022-11-21T10:55:03.642Z,13.83
2022-11-21T10:57:51.018Z,14.01
2022-11-21T11:00:26.122Z,13.94
2022-11-21T11:03:05.890Z,13.47
2022-11-21T11:05:37.691Z,12.85
2022-11-21T11:08:14.083Z,12.94
2022-11-21T11:10:46.583Z,12.85
2022-11-21T11:13:49.870Z,12.92
2022-11-21T11:16:22.191Z,12.89
2022-11-21T11:19:00.405Z,13.23
2022-11-21T11:21:30.606Z,13.24
2022-11-21T11:24:09.637Z,13.21
2022-11-21T11:26:59.753Z,12.91
2022-11-21T11:29:34.843Z,12.86
2022-11-21T11:32:22.659Z,12.01
2022-11-21T11:35:13.530Z,12.35
2022-11-21T11:37:41.915Z,11.97
2022-11-21T11:40:37.207Z,12.03
2022-11-21T11:43:43.788Z,12.65
2022-11-21T11:47:29.323Z,12.64
2022-11-21T11:50:11.381Z,12.59
2022-11-21T11:53:07.693Z,12.69
2022-11-21T11:55:57.795Z,14.32
2022-11-21T11:58:26.931Z,17.17
2022-11-21T12:01:12.608Z,17.40
2022-11-21T12:03:58.995Z,18.35
2022-11-21T12:10:04.226Z,23.07
2022-11-21T12:12:42.410Z,24.55
2022-11-21T12:15:44.509Z,23.65
2022-11-21T12:18:23.049Z,23.97
2022-11-21T12:21:02.423Z,22.94
2022-11-21T12:23:35.789Z,23.88
2022-11-21T12:26:23.178Z,20.45
2022-11-21T12:29:44.678Z,19.73
2022-11-21T12:32:27.066Z,18.74
2022-11-21T12:35:20.273Z,17.20
2022-11-21T12:38:18.245Z,16.74
2022-11-21T12:41:29.211Z,18.13
2022-11-21T12:44:41.932Z,19.23
2022-11-21T12:47:56.569Z,17.07
2022-11-21T12:50:59.591Z,15.89
2022-11-21T12:54:33.749Z,15.49
2022-11-21T12:57:11.884Z,15.08
2022-11-21T13:00:15.144Z,15.32
2022-11-21T13:03:23.403Z,15.53
2022-11-21T13:05:53.547Z,15.39
2022-11-21T13:08:29.246Z,15.26
2022-11-21T13:11:46.340Z,15.79
2022-11-21T13:15:02.190Z,15.74
2022-11-21T13:17:33.439Z,14.76
2022-11-21T13:20:27.202Z,15.24
2022-11-21T13:23:01.071Z,15.25
2022-11-21T13:25:41.677Z,15.54
2022-11-21T13:28:11.671Z,15.39
2022-11-21T13:30:51.590Z,15.48
2022-11-21T13:33:39.212Z,15.54
2022-11-21T13:36:10.536Z,15.08
2022-11-21T13:38:55.412Z,15.01
2022-11-21T13:41:52.979Z,14.43
2022-11-21T13:44:32.198Z,14.72
2022-11-21T13:47:02.504Z,14.41
2022-11-21T13:49:57.075Z,14.71
2022-11-21T13:52:55.194Z,14.97
2022-11-21T13:55:57.940Z,15.26
2022-11-21T13:58:27.700Z,15.37
2022-11-21T14:01:18.636Z,15.12
2022-11-21T14:03:59.000Z,14.87
2022-11-21T14:06:43.339Z,15.01
2022-11-21T14:09:13.357Z,14.84
2022-11-21T14:12:03.607Z,14.79
2022-11-21T14:15:02.421Z,14.81
2022-11-21T14:17:47.322Z,14.82
2022-11-21T14:20:26.531Z,14.60
2022-11-21T14:22:53.310Z,14.30
2022-11-21T14:25:27.540Z,14.50
2022-11-21T14:27:56.121Z,14.41
2022-11-21T14:30:33.936Z,14.25
2022-11-21T14:33:29.345Z,14.33
2022-11-21T14:36:09.624Z,14.13
2022-11-21T14:39:35.493Z,14.22
2022-11-21T14:42:02.447Z,14.17
2022-11-21T14:44:29.875Z,13.76
2022-11-21T14:47:23.501Z,13.93
2022-11-21T14:49:54.655Z,13.91
2022-11-21T14:52:26.875Z,14.04
2022-11-21T14:57:47.254Z,13.80
2022-11-21T15:03:23.384Z,13.85
2022-11-21T15:06:05.346Z,13.54
2022-11-21T15:11:34.764Z,13.60
2022-11-21T15:14:16.048Z,13.35
2022-11-21T15:16:48.074Z,13.20
2022-11-21T15:19:33.758Z,13.15
2022-11-21T15:22:04.142Z,13.07
2022-11-21T15:24:43.732Z,13.17
2022-11-21T15:27:31.823Z,13.20
2022-11-21T15:30:10.973Z,13.18
2022-11-21T15:33:11.694Z,13.19
2022-11-21T15:35:38.525Z,12.90
2022-11-21T15:38:25.612Z,13.15
2022-11-21T15:41:15.950Z,12.98
2022-11-21T15:43:48.132Z,12.79
2022-11-21T15:46:25.215Z,12.72
2022-11-21T15:48:55.202Z,12.78
2022-11-21T15:51:59.715Z,12.81
2022-11-21T15:54:21.367Z,12.78
2022-11-21T15:56:48.621Z,12.71
2022-11-21T15:59:16.002Z,12.58
2022-11-21T16:01:43.215Z,12.50
2022-11-21T16:04:12.664Z,12.54
2022-11-21T16:06:42.031Z,12.42
2022-11-21T16:09:09.012Z,12.43
2022-11-21T16:11:40.470Z,12.50
2022-11-21T16:14:08.705Z,12.49
2022-11-21T16:16:43.419Z,12.47
2022-11-21T16:19:14.774Z,12.52
2022-11-21T16:21:42.358Z,12.43
2022-11-21T16:24:09.281Z,12.26
2022-11-21T16:26:36.157Z,12.21
2022-11-21T16:29:06.177Z,12.12
2022-11-21T16:31:34.554Z,12.26
2022-11-21T16:34:02.484Z,12.15
2022-11-21T16:36:33.940Z,12.20
2022-11-21T16:39:08.899Z,12.14
2022-11-21T16:41:37.255Z,12.16
2022-11-21T16:44:04.703Z,12.05
2022-11-21T16:46:31.583Z,12.12
2022-11-21T16:49:01.543Z,12.03
2022-11-21T16:51:29.519Z,12.02
2022-11-21T16:53:59.694Z,12.14
2022-11-21T16:56:30.130Z,12.20
2022-11-21T16:58:57.014Z,12.28
2022-11-21T17:01:26.247Z,12.32
2022-11-21T17:03:53.468Z,12.17
2022-11-21T17:06:24.902Z,12.22
2022-11-21T17:08:51.798Z,12.13
2022-11-21T17:11:23.880Z,12.33
2022-11-21T17:13:51.393Z,12.19
2022-11-21T17:16:22.480Z,12.31
2022-11-21T17:18:54.848Z,12.17
2022-11-21T17:21:22.601Z,11.77
2022-11-21T17:23:50.302Z,12.04
2022-11-21T17:26:21.166Z,11.95
2022-11-21T17:28:57.656Z,11.93
2022-11-21T17:31:25.010Z,11.90
2022-11-21T17:33:52.143Z,11.75
2022-11-21T17:36:25.574Z,11.92
2022-11-21T17:38:54.397Z,11.69
2022-11-21T17:41:23.359Z,11.73
2022-11-21T17:43:55.843Z,11.81
2022-11-21T17:46:25.232Z,11.67
2022-11-21T17:48:57.088Z,11.70
2022-11-21T17:51:29.674Z,11.76
2022-11-21T17:53:57.347Z,11.72
2022-11-21T17:56:28.016Z,11.77
2022-11-21T17:58:55.535Z,11.45
2022-11-21T18:01:23.327Z,11.01
2022-11-21T18:04:10.143Z,12.00
2022-11-21T18:06:40.749Z,11.81
2022-11-21T18:09:11.815Z,11.72
2022-11-21T18:11:40.417Z,11.51
2022-11-21T18:14:10.341Z,11.51
2022-11-21T18:16:39.231Z,11.42
2022-11-21T18:19:06.645Z,11.28
2022-11-21T18:21:35.881Z,11.34
2022-11-21T18:24:02.982Z,11.01
2022-11-21T18:26:36.539Z,11.39
2022-11-21T18:29:35.146Z,11.61
2022-11-21T18:31:54.136Z,11.73
2022-11-21T18:34:21.509Z,11.70
2022-11-21T18:36:48.523Z,11.53
2022-11-21T18:39:15.807Z,11.59
2022-11-21T18:41:43.690Z,11.53
2022-11-21T18:44:14.580Z,11.50
2022-11-21T18:46:44.180Z,11.62
2022-11-21T18:49:11.064Z,11.87
2022-11-21T18:51:38.427Z,11.56
2022-11-21T18:54:08.508Z,11.87
2022-11-21T18:56:37.363Z,11.80
2022-11-21T18:59:06.270Z,11.80
2022-11-21T19:01:35.626Z,11.99
2022-11-21T19:04:03.361Z,12.19
2022-11-21T19:06:30.850Z,11.97
2022-11-21T19:08:58.650Z,11.54
2022-11-21T19:11:28.856Z,11.62
2022-11-21T19:13:57.519Z,11.84
2022-11-21T19:16:27.073Z,11.93
2022-11-21T19:19:26.443Z,11.74
2022-11-21T19:21:43.412Z,11.49
2022-11-21T19:24:13.336Z,11.19
2022-11-21T19:26:41.019Z,11.51
2022-11-21T19:29:09.715Z,11.94
2022-11-21T19:31:44.160Z,11.69
2022-11-21T19:34:16.992Z,11.82
2022-11-21T19:36:45.354Z,11.65
2022-11-21T19:39:12.772Z,11.60
2022-11-21T19:41:40.235Z,11.83
2022-11-21T19:44:07.205Z,11.63
2022-11-21T19:46:39.674Z,11.64
2022-11-21T19:49:08.398Z,11.66
2022-11-21T19:51:42.479Z,11.89
2022-11-21T19:54:12.171Z,11.81
2022-11-21T19:56:39.796Z,11.85
2022-11-21T19:59:06.734Z,11.70
2022-11-21T20:01:34.815Z,11.82
2022-11-21T20:04:04.636Z,11.83
2022-11-21T20:06:45.822Z,11.60
2022-11-21T20:09:16.615Z,11.57
2022-11-21T20:11:46.915Z,11.22
2022-11-21T20:14:21.015Z,10.92
2022-11-21T20:16:49.783Z,10.66
2022-11-21T20:19:19.297Z,11.27
2022-11-21T20:21:47.339Z,11.09
2022-11-21T20:24:14.793Z,10.68
2022-11-21T20:26:42.717Z,10.65
2022-11-21T20:29:12.865Z,10.99
2022-11-21T20:31:40.364Z,10.59
2022-11-21T20:34:12.695Z,10.70
2022-11-21T20:36:40.792Z,10.52
2022-11-21T20:39:14.019Z,10.66
2022-11-21T20:41:41.554Z,10.66
2022-11-21T20:47:09.067Z,10.80
2022-11-21T20:49:36.470Z,10.95
2022-11-21T20:54:50.669Z,11.01
2022-11-21T20:57:17.570Z,10.99
2022-11-21T20:59:44.879Z,11.18
2022-11-21T21:02:13.613Z,10.99
2022-11-21T21:04:40.489Z,11.21
2022-11-21T21:07:07.446Z,11.19
2022-11-21T21:09:34.920Z,11.56
2022-11-21T21:12:01.871Z,11.51
2022-11-21T21:14:28.944Z,11.10
2022-11-21T21:16:56.226Z,11.15
2022-11-21T21:19:23.271Z,11.19
2022-11-21T21:21:50.222Z,11.30
2022-11-21T21:24:18.121Z,11.46
2022-11-21T21:26:47.577Z,11.34
2022-11-21T21:29:19.179Z,11.17
2022-11-21T21:31:51.065Z,11.13
2022-11-21T21:34:20.850Z,11.08
2022-11-21T21:36:48.539Z,11.31
2022-11-21T21:39:15.443Z,11.27
2022-11-21T21:41:46.059Z,11.23
2022-11-21T21:44:14.013Z,11.34
2022-11-21T21:46:41.136Z,11.23
2022-11-21T21:49:08.372Z,11.04
2022-11-21T21:51:37.083Z,11.26
2022-11-21T21:54:04.497Z,11.24
2022-11-21T21:56:31.526Z,11.19
2022-11-21T21:58:59.367Z,11.20
2022-11-21T22:01:31.897Z,10.98
2022-11-21T22:04:03.968Z,10.85
2022-11-21T22:06:33.860Z,11.23
2022-11-21T22:09:01.061Z,11.21
2022-11-21T22:11:36.438Z,11.45
2022-11-21T22:14:07.515Z,10.93
2022-11-21T22:16:34.453Z,11.34
2022-11-21T22:19:01.318Z,11.39
2022-11-21T22:21:34.992Z,11.10
2022-11-21T22:24:27.803Z,11.20
2022-11-21T22:26:55.363Z,11.43
2022-11-21T22:29:22.320Z,11.34
2022-11-21T22:31:50.780Z,11.31
2022-11-21T22:34:17.755Z,11.18
2022-11-21T22:36:44.781Z,11.01
2022-11-21T22:39:11.751Z,11.04
2022-11-21T22:41:39.164Z,11.27
2022-11-21T22:44:06.551Z,11.19
2022-11-21T22:46:33.881Z,11.39
2022-11-21T22:49:00.844Z,11.38
2022-11-21T22:51:29.692Z,11.57
2022-11-21T22:54:00.120Z,11.45
2022-11-21T22:56:27.625Z,11.33
2022-11-21T22:58:55.974Z,11.39
2022-11-21T23:01:25.502Z,11.27
2022-11-21T23:03:53.330Z,11.09
2022-11-21T23:06:23.536Z,11.37
2022-11-21T23:08:51.837Z,11.45
2022-11-21T23:11:25.827Z,11.41
2022-11-21T23:13:52.839Z,11.27
2022-11-21T23:16:21.027Z,11.42
2022-11-21T23:18:48.799Z,11.53
2022-11-21T23:21:16.201Z,11.50
2022-11-21T23:23:44.000Z,11.60
2022-11-21T23:26:11.855Z,11.65
2022-11-21T23:28:39.010Z,11.49
2022-11-21T23:31:06.110Z,11.58
2022-11-21T23:33:33.057Z,11.52
2022-11-21T23:36:00.291Z,11.48
2022-11-21T23:38:27.232Z,11.61
2022-11-21T23:40:54.218Z,11.53
2022-11-21T23:43:21.109Z,11.61
2022-11-21T23:45:52.343Z,11.70
2022-11-21T23:48:20.199Z,11.54
2022-11-21T23:50:48.247Z,11.65
2022-11-21T23:53:15.180Z,11.42
2022-11-21T23:55:43.724Z,11.54
2022-11-21T23:58:11.475Z,11.72
